Time;durP1;ratioP1;P1;durP2;ratioP2;P2;SDS_P1;SDS_P2;PMS_P1;PMS_P2;Temp;Humidity;BMP_temperature;BMP_pressure;BME280_temperature;BME280_humidity;BME280_pressure;Samples;Min_cycle;Max_cycle;Signal;HPM_P1;HPM_P2
2021/12/30 00:01:56;;;;;;;30.13;9.20;;;;;;;;;;5072958;28;20107;-68
2021/12/30 00:04:24;;;;;;;31.42;9.65;;;;;;;;;;5074019;28;20103;-68
2021/12/30 00:06:50;;;;;;;31.02;9.43;;;;;;;;;;5091984;28;20496;-68
2021/12/30 00:09:18;;;;;;;30.77;8.25;;;;;;;;;;5091902;28;20751;-68
2021/12/30 00:11:44;;;;;;;26.80;9.10;;;;;;;;;;5091013;28;20020;-68
2021/12/30 00:14:10;;;;;;;34.50;9.88;;;;;;;;;;5073777;28;20031;-67
2021/12/30 00:16:36;;;;;;;36.42;10.32;;;;;;;;;;5091865;28;20050;-69
2021/12/30 00:19:03;;;;;;;24.80;7.55;;;;;;;;;;5073475;28;20081;-67
2021/12/30 00:21:29;;;;;;;31.00;9.88;;;;;;;;;;5073449;28;20373;-68
2021/12/30 00:23:55;;;;;;;34.70;8.13;;;;;;;;;;5072959;28;20031;-67
2021/12/30 00:26:21;;;;;;;24.45;8.27;;;;;;;;;;5091724;28;20513;-67
2021/12/30 00:28:47;;;;;;;30.80;8.95;;;;;;;;;;5073497;28;20028;-68
2021/12/30 00:31:13;;;;;;;29.50;8.88;;;;;;;;;;5073437;28;20034;-67
2021/12/30 00:33:39;;;;;;;34.40;8.82;;;;;;;;;;5090446;28;20368;-68
2021/12/30 00:36:06;;;;;;;26.30;7.65;;;;;;;;;;5073191;28;20024;-67
2021/12/30 00:38:33;;;;;;;28.23;9.15;;;;;;;;;;5091317;28;20035;-68
2021/12/30 00:40:59;;;;;;;27.77;8.30;;;;;;;;;;5073741;28;20728;-68
2021/12/30 00:43:25;;;;;;;31.33;10.80;;;;;;;;;;5072452;28;20028;-68
2021/12/30 00:45:51;;;;;;;40.90;9.70;;;;;;;;;;5073122;28;20031;-67
2021/12/30 00:48:17;;;;;;;27.63;10.13;;;;;;;;;;5072827;28;20031;-67
2021/12/30 00:50:44;;;;;;;30.17;10.00;;;;;;;;;;5091373;28;20024;-69
2021/12/30 00:53:10;;;;;;;29.27;10.25;;;;;;;;;;5089564;28;20038;-69
2021/12/30 00:55:36;;;;;;;32.40;9.98;;;;;;;;;;5090949;28;20442;-67
2021/12/30 00:58:03;;;;;;;32.72;9.95;;;;;;;;;;5091313;28;20031;-69
2021/12/30 01:00:29;;;;;;;35.83;10.15;;;;;;;;;;5079344;28;20388;-69
2021/12/30 01:02:55;;;;;;;33.28;11.52;;;;;;;;;;5073508;28;20071;-68
2021/12/30 01:05:21;;;;;;;30.83;10.80;;;;;;;;;;5101458;23;20044;-73
2021/12/30 01:07:47;;;;;;;35.95;10.98;;;;;;;;;;5071615;28;20290;-73
2021/12/30 01:10:14;;;;;;;29.98;11.75;;;;;;;;;;5071525;28;20023;-74
2021/12/30 01:12:41;;;;;;;34.08;11.57;;;;;;;;;;5070653;28;20031;-74
2021/12/30 01:15:09;;;;;;;38.33;13.23;;;;;;;;;;5071774;28;20065;-74
2021/12/30 01:17:51;;;;;;;;;;;;;;;;;;5057013;28;20485;-74
2021/12/30 01:20:18;;;;;;;35.40;12.50;;;;;;;;;;5056492;28;19954;-73
2021/12/30 01:22:44;;;;;;;33.67;13.27;;;;;;;;;;5055383;28;20024;-74
2021/12/30 01:25:11;;;;;;;37.88;13.50;;;;;;;;;;5073936;28;20104;-74
2021/12/30 01:27:39;;;;;;;32.72;13.93;;;;;;;;;;5074001;28;20027;-74
2021/12/30 01:30:06;;;;;;;35.03;13.25;;;;;;;;;;5074786;28;20024;-74
2021/12/30 01:32:32;;;;;;;38.67;12.75;;;;;;;;;;5076487;28;20017;-74
2021/12/30 01:35:00;;;;;;;27.75;12.20;;;;;;;;;;5078123;28;20400;-73
2021/12/30 01:37:26;;;;;;;50.00;16.48;;;;;;;;;;5060358;28;20496;-74
2021/12/30 01:39:53;;;;;;;33.45;13.57;;;;;;;;;;5059766;28;20028;-73
2021/12/30 01:42:19;;;;;;;35.90;12.30;;;;;;;;;;5055823;28;20020;-74
2021/12/30 01:44:45;;;;;;;37.50;14.25;;;;;;;;;;5055883;28;20029;-73
2021/12/30 01:47:11;;;;;;;36.50;14.43;;;;;;;;;;5055812;28;20033;-73
2021/12/30 01:49:37;;;;;;;30.92;12.45;;;;;;;;;;5055796;28;20120;-73
2021/12/30 01:52:04;;;;;;;28.83;12.40;;;;;;;;;;5054054;28;20032;-73
2021/12/30 01:54:30;;;;;;;32.28;12.52;;;;;;;;;;5055523;28;20468;-73
2021/12/30 01:56:59;;;;;;;37.10;14.32;;;;;;;;;;5055392;28;20112;-75
2021/12/30 01:59:25;;;;;;;38.90;14.63;;;;;;;;;;5055370;28;20024;-73
2021/12/30 02:01:56;;;;;;;38.00;13.40;;;;;;;;;;5054807;28;20032;-73
2021/12/30 02:04:22;;;;;;;32.95;13.93;;;;;;;;;;5055389;28;20396;-73
2021/12/30 02:06:48;;;;;;;34.80;13.02;;;;;;;;;;5054428;28;20036;-73
2021/12/30 02:09:19;;;;;;;33.17;13.23;;;;;;;;;;5054643;28;20028;-72
2021/12/30 02:11:45;;;;;;;36.80;14.18;;;;;;;;;;5053978;28;20439;-72
2021/12/30 02:14:11;;;;;;;38.20;15.02;;;;;;;;;;5072342;28;20077;-73
2021/12/30 02:16:37;;;;;;;35.10;15.85;;;;;;;;;;5053197;28;20016;-73
2021/12/30 02:19:04;;;;;;;40.67;17.85;;;;;;;;;;5055085;28;20029;-74
2021/12/30 02:21:30;;;;;;;42.90;17.20;;;;;;;;;;5072617;28;20076;-73
2021/12/30 02:23:59;;;;;;;39.15;16.17;;;;;;;;;;5054495;28;20025;-73
2021/12/30 02:26:25;;;;;;;41.45;16.23;;;;;;;;;;5053775;28;20032;-75
2021/12/30 02:28:52;;;;;;;40.15;16.00;;;;;;;;;;5055304;28;20373;-74
2021/12/30 02:31:25;;;;;;;44.63;17.58;;;;;;;;;;5054984;28;20530;-73
2021/12/30 02:33:57;;;;;;;38.13;16.55;;;;;;;;;;5072289;28;20078;-73
2021/12/30 02:36:25;;;;;;;41.20;19.23;;;;;;;;;;5054795;28;20028;-74
2021/12/30 02:38:51;;;;;;;44.50;17.42;;;;;;;;;;5054863;28;20021;-73
2021/12/30 02:41:19;;;;;;;42.53;17.50;;;;;;;;;;5054792;28;20028;-71
2021/12/30 02:43:47;;;;;;;39.03;17.92;;;;;;;;;;5072116;28;20016;-72
2021/12/30 02:46:13;;;;;;;42.92;17.48;;;;;;;;;;5072608;28;20028;-74
2021/12/30 02:48:41;;;;;;;39.60;16.63;;;;;;;;;;5054769;28;20586;-73
2021/12/30 02:51:08;;;;;;;37.13;16.25;;;;;;;;;;5072932;28;20028;-73
2021/12/30 02:53:34;;;;;;;39.85;17.98;;;;;;;;;;5072144;28;20016;-73
2021/12/30 02:56:00;;;;;;;37.88;16.88;;;;;;;;;;5054998;28;20624;-74
2021/12/30 02:58:26;;;;;;;41.10;16.70;;;;;;;;;;5072459;28;20024;-74
2021/12/30 03:00:57;;;;;;;40.50;17.30;;;;;;;;;;5054418;28;20043;-73
2021/12/30 03:03:24;;;;;;;39.85;17.65;;;;;;;;;;5053022;28;20032;-73
2021/12/30 03:05:55;;;;;;;43.40;17.55;;;;;;;;;;5054274;28;20477;-73
2021/12/30 03:08:21;;;;;;;34.45;15.20;;;;;;;;;;5054569;28;20099;-72
2021/12/30 03:10:47;;;;;;;41.75;16.55;;;;;;;;;;5054520;28;20067;-77
2021/12/30 03:13:15;;;;;;;40.13;15.50;;;;;;;;;;5053768;28;20024;-73
2021/12/30 03:15:42;;;;;;;42.45;17.08;;;;;;;;;;5072285;28;20533;-72
2021/12/30 03:18:08;;;;;;;41.67;14.90;;;;;;;;;;5054512;28;20404;-74
2021/12/30 03:20:36;;;;;;;37.70;16.10;;;;;;;;;;5054593;28;20024;-74
2021/12/30 03:23:02;;;;;;;41.57;15.23;;;;;;;;;;5053877;28;20077;-72
2021/12/30 03:25:28;;;;;;;37.33;15.27;;;;;;;;;;5052893;28;20271;-71
2021/12/30 03:27:54;;;;;;;38.55;14.77;;;;;;;;;;5054268;28;20030;-73
2021/12/30 03:30:20;;;;;;;38.08;13.48;;;;;;;;;;5072178;28;20111;-72
2021/12/30 03:32:46;;;;;;;44.50;15.35;;;;;;;;;;5053676;28;20017;-73
2021/12/30 03:35:12;;;;;;;38.97;14.73;;;;;;;;;;5054489;28;20028;-72
2021/12/30 03:37:39;;;;;;;39.80;14.38;;;;;;;;;;5054367;28;20434;-73
2021/12/30 03:40:07;;;;;;;36.53;15.30;;;;;;;;;;5054324;28;20016;-71
2021/12/30 03:42:33;;;;;;;43.78;15.50;;;;;;;;;;5054082;28;20021;-72
2021/12/30 03:45:02;;;;;;;38.00;12.95;;;;;;;;;;5072206;28;21793;-73
2021/12/30 03:47:28;;;;;;;35.03;14.07;;;;;;;;;;5054457;28;20024;-71
2021/12/30 03:49:54;;;;;;;32.17;12.98;;;;;;;;;;5054719;28;20101;-72
2021/12/30 03:52:26;;;;;;;34.50;14.90;;;;;;;;;;5071703;28;20032;-74
2021/12/30 03:54:53;;;;;;;40.60;14.98;;;;;;;;;;5054365;28;20034;-72
2021/12/30 03:57:19;;;;;;;39.67;14.18;;;;;;;;;;5071928;28;20398;-73
2021/12/30 03:59:45;;;;;;;34.83;15.25;;;;;;;;;;5053923;28;20484;-73
2021/12/30 04:02:11;;;;;;;38.53;14.65;;;;;;;;;;5053516;28;20020;-74
2021/12/30 04:04:37;;;;;;;34.25;13.75;;;;;;;;;;5053940;28;20025;-72
2021/12/30 04:07:03;;;;;;;40.03;15.57;;;;;;;;;;5071652;28;20036;-73
2021/12/30 04:09:29;;;;;;;41.80;15.77;;;;;;;;;;5054094;28;20110;-73
2021/12/30 04:11:55;;;;;;;38.38;15.38;;;;;;;;;;5071077;28;20032;-73
2021/12/30 04:14:22;;;;;;;43.67;14.38;;;;;;;;;;5055037;28;20029;-72
2021/12/30 04:16:48;;;;;;;34.20;14.38;;;;;;;;;;5057512;28;20013;-73
2021/12/30 04:19:14;;;;;;;41.55;15.23;;;;;;;;;;5057376;28;20024;-72
2021/12/30 04:21:40;;;;;;;41.80;15.63;;;;;;;;;;5056602;28;20030;-73
2021/12/30 04:24:06;;;;;;;41.60;15.25;;;;;;;;;;5057250;28;20077;-72
2021/12/30 04:26:32;;;;;;;36.40;16.20;;;;;;;;;;5055901;28;20499;-71
2021/12/30 04:28:58;;;;;;;41.33;15.63;;;;;;;;;;5057058;28;20052;-73
2021/12/30 04:31:24;;;;;;;45.83;16.27;;;;;;;;;;5057194;28;20028;-71
2021/12/30 04:33:50;;;;;;;41.38;17.40;;;;;;;;;;5056353;28;20059;-73
2021/12/30 04:36:16;;;;;;;41.70;16.08;;;;;;;;;;5056872;28;20487;-73
2021/12/30 04:38:42;;;;;;;41.30;15.98;;;;;;;;;;5056840;28;20093;-72
2021/12/30 04:41:09;;;;;;;40.63;15.95;;;;;;;;;;5056737;28;20550;-73
2021/12/30 04:43:35;;;;;;;37.88;16.52;;;;;;;;;;5073960;28;20374;-73
2021/12/30 04:46:02;;;;;;;46.85;16.60;;;;;;;;;;5056553;28;20056;-73
2021/12/30 04:48:28;;;;;;;41.83;17.45;;;;;;;;;;5057040;28;20486;-72
2021/12/30 04:50:55;;;;;;;41.95;17.85;;;;;;;;;;5056698;28;20047;-72
2021/12/30 04:53:21;;;;;;;42.05;15.65;;;;;;;;;;5073665;28;20031;-70
2021/12/30 04:55:48;;;;;;;39.53;15.38;;;;;;;;;;5056308;28;20496;-73
2021/12/30 04:58:14;;;;;;;40.60;17.27;;;;;;;;;;5074655;28;20029;-73
2021/12/30 05:00:40;;;;;;;39.42;16.77;;;;;;;;;;5056219;28;20031;-73
2021/12/30 05:05:32;;;;;;;36.90;17.92;;;;;;;;;;5073985;28;20382;-72
2021/12/30 05:07:58;;;;;;;39.38;15.20;;;;;;;;;;5056367;28;20375;-73
2021/12/30 05:10:24;;;;;;;37.78;15.45;;;;;;;;;;5074213;28;20032;-73
2021/12/30 05:12:50;;;;;;;36.72;15.30;;;;;;;;;;5055553;28;20388;-72
2021/12/30 05:15:16;;;;;;;34.47;16.90;;;;;;;;;;5056146;28;20078;-73
2021/12/30 05:17:43;;;;;;;34.83;16.02;;;;;;;;;;5073935;28;20074;-71
2021/12/30 05:20:12;;;;;;;35.45;15.88;;;;;;;;;;5056021;28;20054;-73
2021/12/30 05:22:38;;;;;;;38.95;17.08;;;;;;;;;;5073265;28;20044;-72
2021/12/30 05:25:04;;;;;;;38.90;15.48;;;;;;;;;;5054159;28;20039;-71
2021/12/30 05:27:30;;;;;;;36.55;16.10;;;;;;;;;;5055561;28;20594;-74
2021/12/30 05:29:56;;;;;;;39.88;17.40;;;;;;;;;;5073829;28;20024;-73
2021/12/30 05:32:22;;;;;;;40.67;17.52;;;;;;;;;;5073199;28;20021;-72
2021/12/30 05:34:48;;;;;;;38.58;19.10;;;;;;;;;;5073639;28;20025;-72
2021/12/30 05:37:14;;;;;;;43.38;19.35;;;;;;;;;;5073629;28;20396;-73
2021/12/30 05:39:42;;;;;;;45.17;21.95;;;;;;;;;;5073566;28;20024;-73
2021/12/30 05:42:08;;;;;;;43.20;20.90;;;;;;;;;;5055043;28;20108;-74
2021/12/30 05:44:34;;;;;;;44.00;20.95;;;;;;;;;;5073801;28;20270;-73
2021/12/30 05:47:00;;;;;;;42.15;21.48;;;;;;;;;;5055535;28;20020;-73
2021/12/30 05:49:26;;;;;;;41.03;21.15;;;;;;;;;;5055598;28;20500;-73
2021/12/30 05:51:52;;;;;;;43.67;20.65;;;;;;;;;;5072493;28;20028;-73
2021/12/30 05:54:18;;;;;;;40.15;20.15;;;;;;;;;;5055159;28;20519;-73
2021/12/30 05:56:44;;;;;;;42.38;20.52;;;;;;;;;;5055241;28;20028;-71
2021/12/30 05:59:10;;;;;;;42.22;20.77;;;;;;;;;;5073372;28;20050;-73
2021/12/30 06:01:36;;;;;;;35.47;18.83;;;;;;;;;;5054889;28;20602;-72
2021/12/30 06:04:02;;;;;;;33.10;17.88;;;;;;;;;;5055196;28;20021;-73
2021/12/30 06:06:28;;;;;;;36.28;16.67;;;;;;;;;;5055301;28;20526;-72
2021/12/30 06:08:55;;;;;;;33.22;16.63;;;;;;;;;;5055270;28;20035;-72
2021/12/30 06:11:21;;;;;;;31.40;16.45;;;;;;;;;;5055410;28;20031;-74
2021/12/30 06:13:47;;;;;;;32.95;16.63;;;;;;;;;;5054821;28;20028;-73
2021/12/30 06:16:13;;;;;;;38.70;17.17;;;;;;;;;;5055193;28;20043;-74
2021/12/30 06:18:39;;;;;;;28.60;14.57;;;;;;;;;;5072865;28;20441;-72
2021/12/30 06:21:05;;;;;;;28.70;14.30;;;;;;;;;;5073203;28;20052;-73
2021/12/30 06:23:31;;;;;;;28.38;13.68;;;;;;;;;;5054671;28;20488;-74
2021/12/30 06:25:57;;;;;;;26.77;14.25;;;;;;;;;;5063527;28;20029;-71
2021/12/30 06:28:23;;;;;;;29.55;15.65;;;;;;;;;;5050405;28;20039;-73
2021/12/30 06:30:49;;;;;;;25.90;13.02;;;;;;;;;;5051238;28;20067;-72
2021/12/30 06:33:15;;;;;;;27.25;13.00;;;;;;;;;;5050724;28;20056;-73
2021/12/30 06:35:41;;;;;;;28.60;14.13;;;;;;;;;;5054552;28;20024;-73
2021/12/30 06:38:07;;;;;;;23.85;11.60;;;;;;;;;;5072236;28;20358;-73
2021/12/30 06:40:33;;;;;;;26.42;10.85;;;;;;;;;;5054796;28;20165;-72
2021/12/30 06:42:59;;;;;;;23.48;10.27;;;;;;;;;;5051044;28;20556;-73
2021/12/30 06:45:25;;;;;;;24.02;10.70;;;;;;;;;;5052991;28;20109;-72
2021/12/30 06:47:53;;;;;;;20.70;10.35;;;;;;;;;;5054701;28;20029;-73
2021/12/30 06:50:22;;;;;;;20.20;10.43;;;;;;;;;;5054565;28;20029;-72
2021/12/30 06:52:48;;;;;;;20.10;10.43;;;;;;;;;;5071864;28;20119;-73
2021/12/30 06:55:15;;;;;;;19.60;10.05;;;;;;;;;;5072516;28;20147;-74
2021/12/30 06:57:41;;;;;;;19.00;9.23;;;;;;;;;;5054466;28;20027;-73
2021/12/30 07:00:08;;;;;;;20.08;10.13;;;;;;;;;;5053932;28;20108;-72
2021/12/30 07:02:35;;;;;;;18.40;10.70;;;;;;;;;;5053623;28;20392;-73
2021/12/30 07:05:01;;;;;;;18.20;10.05;;;;;;;;;;5054302;28;20120;-73
2021/12/30 07:07:27;;;;;;;21.30;11.10;;;;;;;;;;5093513;22;20052;-68
2021/12/30 07:09:53;;;;;;;21.50;12.02;;;;;;;;;;5072044;28;20477;-67
2021/12/30 07:12:19;;;;;;;22.17;13.10;;;;;;;;;;5070951;28;20020;-68
2021/12/30 07:14:45;;;;;;;23.42;14.07;;;;;;;;;;5053862;28;20044;-67
2021/12/30 07:17:11;;;;;;;20.83;14.20;;;;;;;;;;5054264;28;20025;-68
2021/12/30 07:19:37;;;;;;;24.67;15.35;;;;;;;;;;5072103;28;20368;-68
2021/12/30 07:22:04;;;;;;;22.33;15.85;;;;;;;;;;5053163;28;20074;-67
2021/12/30 07:24:30;;;;;;;24.55;21.85;;;;;;;;;;5054102;28;20031;-67
2021/12/30 07:26:56;;;;;;;25.35;22.33;;;;;;;;;;5053705;28;20078;-68
2021/12/30 07:29:22;;;;;;;26.90;24.10;;;;;;;;;;5054519;28;20037;-67
2021/12/30 07:31:48;;;;;;;28.35;24.52;;;;;;;;;;5053916;28;20110;-67
2021/12/30 07:34:14;;;;;;;27.50;24.33;;;;;;;;;;5054196;28;20090;-68
2021/12/30 07:36:40;;;;;;;27.90;24.65;;;;;;;;;;5054317;28;20507;-67
2021/12/30 07:39:06;;;;;;;29.02;26.00;;;;;;;;;;5054641;28;20055;-67
2021/12/30 07:41:32;;;;;;;28.40;25.50;;;;;;;;;;5071145;28;20035;-67
2021/12/30 07:43:58;;;;;;;30.63;27.20;;;;;;;;;;5071341;28;20078;-67
2021/12/30 07:46:24;;;;;;;29.70;26.70;;;;;;;;;;5053732;28;20033;-68
2021/12/30 07:48:50;;;;;;;28.67;25.65;;;;;;;;;;5054379;28;20024;-67
2021/12/30 07:51:16;;;;;;;30.42;27.33;;;;;;;;;;5057702;28;20031;-68
2021/12/30 07:53:42;;;;;;;30.90;27.60;;;;;;;;;;5074678;28;20089;-67
2021/12/30 07:56:08;;;;;;;31.75;27.70;;;;;;;;;;5056911;28;20101;-68
2021/12/30 07:58:35;;;;;;;31.13;27.75;;;;;;;;;;5057531;28;20021;-68
2021/12/30 08:01:01;;;;;;;29.65;26.52;;;;;;;;;;5057223;28;20170;-68
2021/12/30 08:03:27;;;;;;;30.42;27.13;;;;;;;;;;5056536;28;20488;-67
2021/12/30 08:05:53;;;;;;;32.35;28.90;;;;;;;;;;5057226;28;20056;-68
2021/12/30 08:08:19;;;;;;;29.90;25.63;;;;;;;;;;5075251;28;20036;-68
2021/12/30 08:10:45;;;;;;;28.85;25.85;;;;;;;;;;5056943;28;20024;-68
2021/12/30 08:13:11;;;;;;;28.98;25.92;;;;;;;;;;5056403;28;20032;-67
2021/12/30 08:15:37;;;;;;;29.70;26.40;;;;;;;;;;5057267;28;20396;-67
2021/12/30 08:18:04;;;;;;;28.85;25.85;;;;;;;;;;5057390;28;20020;-67
2021/12/30 08:20:30;;;;;;;29.02;25.48;;;;;;;;;;5074897;28;20488;-67
2021/12/30 08:22:56;;;;;;;27.25;23.95;;;;;;;;;;5056171;28;20025;-68
2021/12/30 08:25:23;;;;;;;29.30;26.20;;;;;;;;;;5056444;28;20025;-67
2021/12/30 08:27:49;;;;;;;30.05;26.95;;;;;;;;;;5056729;28;20025;-68
2021/12/30 08:30:17;;;;;;;30.15;26.77;;;;;;;;;;5056876;28;20027;-66
2021/12/30 08:32:43;;;;;;;29.63;26.52;;;;;;;;;;5055977;28;20070;-67
2021/12/30 08:35:10;;;;;;;28.77;25.80;;;;;;;;;;5074488;28;20064;-67
2021/12/30 08:37:36;;;;;;;30.10;26.95;;;;;;;;;;5056491;28;20412;-67
2021/12/30 08:40:04;;;;;;;30.25;27.17;;;;;;;;;;5055885;28;20016;-67
2021/12/30 08:42:30;;;;;;;30.33;26.88;;;;;;;;;;5055377;28;20391;-67
2021/12/30 08:44:58;;;;;;;29.08;25.35;;;;;;;;;;5056400;28;20120;-67
2021/12/30 08:47:24;;;;;;;27.03;24.07;;;;;;;;;;5056243;28;20593;-67
2021/12/30 08:49:51;;;;;;;26.67;23.77;;;;;;;;;;5074199;28;20033;-67
2021/12/30 08:52:19;;;;;;;25.02;22.08;;;;;;;;;;5055680;28;20476;-67
2021/12/30 08:54:45;;;;;;;26.08;22.08;;;;;;;;;;5073714;28;20025;-67
2021/12/30 08:57:11;;;;;;;25.70;22.98;;;;;;;;;;5074353;28;20028;-67
2021/12/30 08:59:37;;;;;;;27.38;22.42;;;;;;;;;;5056335;28;20021;-67
2021/12/30 09:02:04;;;;;;;24.65;21.13;;;;;;;;;;5073629;28;20055;-67
2021/12/30 09:04:31;;;;;;;27.52;21.65;;;;;;;;;;5074107;28;20024;-70
2021/12/30 09:06:57;;;;;;;27.88;22.95;;;;;;;;;;5056389;28;20040;-71
2021/12/30 09:09:23;;;;;;;27.85;22.65;;;;;;;;;;5056108;28;20032;-71
2021/12/30 09:11:49;;;;;;;28.13;23.15;;;;;;;;;;5056140;28;20123;-71
2021/12/30 09:14:15;;;;;;;26.08;23.27;;;;;;;;;;5074960;28;20028;-71
2021/12/30 09:16:41;;;;;;;25.58;20.98;;;;;;;;;;5057197;28;20115;-69
2021/12/30 09:19:08;;;;;;;35.15;24.52;;;;;;;;;;5057262;28;20464;-69
2021/12/30 09:21:37;;;;;;;25.20;22.50;;;;;;;;;;5056741;28;20388;-67
2021/12/30 09:24:03;;;;;;;27.88;24.20;;;;;;;;;;5074010;28;20025;-70
2021/12/30 09:26:29;;;;;;;29.45;24.38;;;;;;;;;;5074100;28;20082;-70
2021/12/30 09:28:55;;;;;;;26.67;23.83;;;;;;;;;;5056172;28;20119;-69
2021/12/30 09:31:21;;;;;;;28.60;25.52;;;;;;;;;;5073650;28;20020;-69
2021/12/30 09:33:47;;;;;;;27.10;24.30;;;;;;;;;;5074122;28;20029;-72
2021/12/30 09:36:13;;;;;;;27.65;24.65;;;;;;;;;;5074533;28;20435;-74
2021/12/30 09:38:39;;;;;;;28.17;25.30;;;;;;;;;;5075494;28;20016;-72
2021/12/30 09:41:05;;;;;;;28.58;25.58;;;;;;;;;;5056027;28;20070;-74
2021/12/30 09:43:31;;;;;;;32.35;29.25;;;;;;;;;;5055503;28;20408;-73
2021/12/30 09:45:57;;;;;;;32.25;29.17;;;;;;;;;;5056093;28;20691;-72
2021/12/30 09:48:23;;;;;;;29.50;24.65;;;;;;;;;;5055541;28;20165;-69
2021/12/30 09:50:51;;;;;;;26.67;23.88;;;;;;;;;;5055210;28;20120;-73
2021/12/30 09:53:18;;;;;;;27.75;24.85;;;;;;;;;;5055170;28;20035;-74
2021/12/30 09:55:44;;;;;;;26.38;23.63;;;;;;;;;;5072797;28;20043;-73
2021/12/30 09:58:10;;;;;;;25.90;23.40;;;;;;;;;;5055415;28;20021;-74
2021/12/30 10:00:36;;;;;;;26.23;23.42;;;;;;;;;;5055586;28;20124;-74
2021/12/30 10:03:03;;;;;;;24.30;21.73;;;;;;;;;;5069897;28;20048;-72
2021/12/30 10:05:31;;;;;;;24.42;21.77;;;;;;;;;;5067699;28;20074;-73
2021/12/30 10:08:12;;;;;;;24.38;20.17;;;;;;;;;;5073408;28;20058;-72
2021/12/30 10:10:39;;;;;;;23.63;21.08;;;;;;;;;;5054423;28;20044;-70
2021/12/30 10:13:20;;;;;;;23.60;19.55;;;;;;;;;;5072695;28;20021;-77
2021/12/30 10:15:47;;;;;;;22.40;19.30;;;;;;;;;;5055728;28;20024;-75
2021/12/30 10:18:14;;;;;;;23.13;18.42;;;;;;;;;;5071811;28;20056;-66
2021/12/30 10:20:41;;;;;;;24.83;17.23;;;;;;;;;;5072672;28;20029;-65
2021/12/30 10:23:15;;;;;;;22.33;15.93;;;;;;;;;;5071572;28;20048;-66
2021/12/30 10:25:45;;;;;;;21.85;16.40;;;;;;;;;;5072286;28;20025;-65
2021/12/30 10:28:20;;;;;;;22.48;16.70;;;;;;;;;;5071705;28;20017;-67
2021/12/30 10:30:47;;;;;;;21.55;15.15;;;;;;;;;;5071924;28;20032;-67
2021/12/30 10:33:14;;;;;;;21.40;14.52;;;;;;;;;;5069823;28;20025;-66
2021/12/30 10:35:40;;;;;;;20.30;15.20;;;;;;;;;;5070923;28;20048;-67
2021/12/30 10:38:09;;;;;;;23.77;14.45;;;;;;;;;;5054242;28;20107;-67
2021/12/30 10:40:36;;;;;;;18.88;13.68;;;;;;;;;;5054813;28;20518;-68
2021/12/30 10:43:20;;;;;;;18.50;13.82;;;;;;;;;;5071262;28;20021;-68
2021/12/30 10:46:05;;;;;;;20.73;14.05;;;;;;;;;;5054049;28;20020;-69
2021/12/30 10:48:31;;;;;;;19.92;14.10;;;;;;;;;;5053948;28;20020;-68
2021/12/30 10:51:10;;;;;;;18.60;12.57;;;;;;;;;;5071794;28;20388;-68
2021/12/30 10:53:37;;;;;;;20.15;12.30;;;;;;;;;;5071076;28;20028;-68
2021/12/30 10:56:23;;;;;;;17.23;12.02;;;;;;;;;;5053759;28;20024;-69
2021/12/30 10:58:50;;;;;;;18.23;12.68;;;;;;;;;;5054063;28;20020;-67
2021/12/30 11:01:21;;;;;;;17.15;11.45;;;;;;;;;;5071964;28;20020;-68
2021/12/30 11:03:58;;;;;;;17.00;11.80;;;;;;;;;;5052958;28;20035;-68
2021/12/30 11:06:24;;;;;;;16.55;10.90;;;;;;;;;;5053524;28;20040;-68
2021/12/30 11:09:03;;;;;;;16.08;11.15;;;;;;;;;;5071596;28;20108;-69
2021/12/30 11:11:30;;;;;;;18.67;11.20;;;;;;;;;;5053498;28;20031;-67
2021/12/30 11:14:01;;;;;;;16.40;9.98;;;;;;;;;;5071024;28;20032;-68
2021/12/30 11:16:27;;;;;;;15.20;8.57;;;;;;;;;;5053881;28;20028;-68
2021/12/30 11:18:55;;;;;;;15.70;8.70;;;;;;;;;;5053674;28;20101;-68
2021/12/30 11:21:38;;;;;;;16.02;8.15;;;;;;;;;;5071445;28;20445;-68
2021/12/30 11:24:04;;;;;;;16.95;7.40;;;;;;;;;;5054162;28;20101;-68
2021/12/30 11:26:32;;;;;;;13.38;5.55;;;;;;;;;;5057422;28;20033;-69
2021/12/30 11:28:58;;;;;;;17.52;6.32;;;;;;;;;;5057132;28;20442;-68
2021/12/30 11:31:24;;;;;;;14.50;5.90;;;;;;;;;;5057118;28;20283;-68
2021/12/30 11:33:50;;;;;;;14.65;6.43;;;;;;;;;;5056827;28;20518;-68
2021/12/30 11:36:19;;;;;;;12.63;5.65;;;;;;;;;;5057485;28;20024;-69
2021/12/30 11:38:45;;;;;;;12.52;5.50;;;;;;;;;;5057660;28;20020;-69
2021/12/30 11:41:22;;;;;;;15.43;6.00;;;;;;;;;;5057442;28;20020;-68
2021/12/30 11:43:49;;;;;;;17.00;5.82;;;;;;;;;;5057031;28;20025;-68
2021/12/30 11:46:33;;;;;;;13.90;5.50;;;;;;;;;;5075714;28;20443;-69
2021/12/30 11:48:59;;;;;;;14.07;5.60;;;;;;;;;;5057349;28;20028;-69
2021/12/30 11:51:39;;;;;;;13.77;5.68;;;;;;;;;;5057316;28;20036;-69
2021/12/30 11:54:24;;;;;;;13.65;5.47;;;;;;;;;;5074941;28;20040;-69
2021/12/30 11:57:10;;;;;;;15.05;6.03;;;;;;;;;;5075210;28;20020;-69
2021/12/30 11:59:39;;;;;;;14.07;5.43;;;;;;;;;;5056884;28;20107;-69
2021/12/30 12:02:25;;;;;;;13.90;5.07;;;;;;;;;;5074359;28;20103;-70
2021/12/30 12:04:51;;;;;;;14.38;5.63;;;;;;;;;;5052576;28;20206;-67
2021/12/30 12:07:17;;;;;;;16.63;5.43;;;;;;;;;;5044823;28;20040;-67
2021/12/30 12:09:43;;;;;;;14.20;5.40;;;;;;;;;;5047279;28;20048;-66
2021/12/30 12:12:30;;;;;;;14.93;5.50;;;;;;;;;;5061943;28;20362;-67
2021/12/30 12:14:59;;;;;;;14.80;5.82;;;;;;;;;;5055028;28;20507;-67
2021/12/30 12:17:25;;;;;;;;;;;;;;;;;;5037166;28;20053;-68
2021/12/30 12:19:53;;;;;;;15.75;5.90;;;;;;;;;;5036587;28;19909;-67
2021/12/30 12:22:19;;;;;;;17.67;6.13;;;;;;;;;;4712585;28;10000510;-68
2021/12/30 12:24:47;;;;;;;14.27;5.95;;;;;;;;;;5055174;28;20418;-68
2021/12/30 12:27:19;;;;;;;16.23;5.57;;;;;;;;;;5065102;28;20028;-68
2021/12/30 12:29:50;;;;;;;14.38;5.72;;;;;;;;;;5070450;28;20025;-68
2021/12/30 12:32:40;;;;;;;14.20;5.55;;;;;;;;;;5039021;28;20035;-68
2021/12/30 12:35:24;;;;;;;17.52;6.25;;;;;;;;;;5051267;28;20048;-68
2021/12/30 12:37:52;;;;;;;16.95;5.88;;;;;;;;;;5061596;28;20028;-68
2021/12/30 12:40:21;;;;;;;15.13;6.65;;;;;;;;;;5041343;28;20016;-69
2021/12/30 12:42:50;;;;;;;21.00;7.95;;;;;;;;;;5038718;28;20032;-69
2021/12/30 12:45:20;;;;;;;15.30;6.30;;;;;;;;;;5065196;28;20035;-69
2021/12/30 12:47:46;;;;;;;14.70;5.70;;;;;;;;;;5045942;28;20017;-69
2021/12/30 12:50:13;;;;;;;18.38;5.90;;;;;;;;;;5041405;28;20225;-69
2021/12/30 12:52:46;;;;;;;18.02;6.57;;;;;;;;;;5061292;28;20028;-68
2021/12/30 12:55:13;;;;;;;16.58;5.93;;;;;;;;;;5044013;28;20409;-69
2021/12/30 12:57:41;;;;;;;18.08;6.32;;;;;;;;;;5042868;28;20025;-69
2021/12/30 13:00:08;;;;;;;19.13;6.90;;;;;;;;;;5058999;28;20497;-69
2021/12/30 13:02:34;;;;;;;14.48;6.43;;;;;;;;;;5061000;28;20021;-68
2021/12/30 13:05:12;;;;;;;17.17;6.20;;;;;;;;;;5060663;28;20021;-70
2021/12/30 13:07:38;;;;;;;15.15;5.85;;;;;;;;;;5053249;22;20559;-70
2021/12/30 13:10:04;;;;;;;16.33;6.35;;;;;;;;;;5018313;28;20026;-70
2021/12/30 13:12:38;;;;;;;15.52;5.60;;;;;;;;;;5017768;28;20496;-71
2021/12/30 13:15:11;;;;;;;15.43;6.10;;;;;;;;;;5025802;28;20264;-70
2021/12/30 13:17:37;;;;;;;16.33;6.25;;;;;;;;;;5018275;28;20034;-71
2021/12/30 13:20:03;;;;;;;17.15;6.18;;;;;;;;;;5009048;28;20045;-71
2021/12/30 13:22:31;;;;;;;23.45;7.63;;;;;;;;;;5007200;28;20431;-71
2021/12/30 13:24:57;;;;;;;17.55;6.18;;;;;;;;;;5001990;28;20025;-70
2021/12/30 13:27:32;;;;;;;18.58;6.30;;;;;;;;;;5019465;28;20104;-71
2021/12/30 13:30:05;;;;;;;16.80;6.18;;;;;;;;;;5020748;28;20418;-69
2021/12/30 13:32:33;;;;;;;19.15;6.82;;;;;;;;;;5004617;28;20416;-69
2021/12/30 13:35:08;;;;;;;16.65;6.40;;;;;;;;;;5037468;28;20032;-71
2021/12/30 13:37:36;;;;;;;16.70;6.15;;;;;;;;;;5022891;28;20037;-70
2021/12/30 13:40:04;;;;;;;16.98;6.93;;;;;;;;;;5012590;28;20024;-70
2021/12/30 13:42:31;;;;;;;16.52;6.53;;;;;;;;;;5012169;28;20030;-71
2021/12/30 13:45:02;;;;;;;18.70;6.60;;;;;;;;;;5010930;28;20160;-71
2021/12/30 13:47:35;;;;;;;19.02;7.45;;;;;;;;;;5010573;28;20036;-71
2021/12/30 13:50:03;;;;;;;16.98;6.20;;;;;;;;;;5021861;28;20346;-70
2021/12/30 13:52:30;;;;;;;15.95;6.00;;;;;;;;;;5011784;28;20119;-70
2021/12/30 13:55:15;;;;;;;16.00;6.07;;;;;;;;;;5031049;28;20090;-69
2021/12/30 13:57:41;;;;;;;17.45;6.78;;;;;;;;;;5009837;28;20053;-70
2021/12/30 14:00:09;;;;;;;20.08;6.85;;;;;;;;;;5021664;28;20021;-68
2021/12/30 14:02:38;;;;;;;21.38;8.20;;;;;;;;;;5017632;28;20127;-69
2021/12/30 14:05:13;;;;;;;16.75;6.40;;;;;;;;;;4656715;28;10000010;-68
2021/12/30 14:07:43;;;;;;;19.90;6.53;;;;;;;;;;5023475;28;20361;-68
2021/12/30 14:10:10;;;;;;;23.10;8.15;;;;;;;;;;5018793;28;20450;-70
2021/12/30 14:12:36;;;;;;;22.00;7.38;;;;;;;;;;5016615;28;20486;-69
2021/12/30 14:15:16;;;;;;;15.85;6.05;;;;;;;;;;5000163;28;20024;-67
2021/12/30 14:17:45;;;;;;;21.52;6.10;;;;;;;;;;5015680;28;20513;-68
2021/12/30 14:20:13;;;;;;;17.02;6.10;;;;;;;;;;5006662;28;20309;-70
2021/12/30 14:22:43;;;;;;;16.33;6.30;;;;;;;;;;5015088;28;20029;-69
2021/12/30 14:25:25;;;;;;;19.73;7.10;;;;;;;;;;5010200;28;20028;-69
2021/12/30 14:27:51;;;;;;;19.42;6.45;;;;;;;;;;5009701;28;20025;-68